Terminal Aerodrome Forecast
Issued by NWS Cleveland, OH

Home | Current Version | Previous Version | Text Only | Print | Product List | Glossary Off
Versions: 1 2 3 4 5 6 7 8 9 10 11 12

000
FTUS41 KCLE 180537
TAFYNG
TAF
KYNG 180537Z 1806/1906 22010KT P6SM FEW030 SCT250 WS020/26040KT
     FM181400 22014G22KT P6SM SCT200
     FM190000 21012KT P6SM SCT200=

USA.gov is the U.S. government's official web portal to all federal, state and local government web resources and services.